sensor_id;sensor_type;location;lat;lon;timestamp;temperature;humidity
21039;DHT22;10678;51.002;4.786;2022-08-21T00:02:17;17.40;99.90
21039;DHT22;10678;51.002;4.786;2022-08-21T00:04:43;17.50;99.90
21039;DHT22;10678;51.002;4.786;2022-08-21T00:07:09;17.50;99.90
21039;DHT22;10678;51.002;4.786;2022-08-21T00:09:35;17.40;99.90
21039;DHT22;10678;51.002;4.786;2022-08-21T00:12:01;17.40;99.90
21039;DHT22;10678;51.002;4.786;2022-08-21T00:14:27;17.40;99.90
21039;DHT22;10678;51.002;4.786;2022-08-21T00:16:53;17.40;99.90
21039;DHT22;10678;51.002;4.786;2022-08-21T00:19:18;17.40;99.90
21039;DHT22;10678;51.002;4.786;2022-08-21T00:21:44;17.40;99.90
21039;DHT22;10678;51.002;4.786;2022-08-21T00:24:10;17.30;99.90
21039;DHT22;10678;51.002;4.786;2022-08-21T00:26:35;17.30;99.90
21039;DHT22;10678;51.002;4.786;2022-08-21T00:29:01;17.20;99.90
21039;DHT22;10678;51.002;4.786;2022-08-21T00:31:26;17.20;99.90
21039;DHT22;10678;51.002;4.786;2022-08-21T00:33:52;17.30;99.90
21039;DHT22;10678;51.002;4.786;2022-08-21T00:36:18;17.30;99.90
21039;DHT22;10678;51.002;4.786;2022-08-21T00:38:43;17.30;99.90
21039;DHT22;10678;51.002;4.786;2022-08-21T00:41:10;17.20;99.90
21039;DHT22;10678;51.002;4.786;2022-08-21T00:43:37;17.20;99.90
21039;DHT22;10678;51.002;4.786;2022-08-21T00:46:04;17.20;99.90
21039;DHT22;10678;51.002;4.786;2022-08-21T00:48:31;17.10;99.90
21039;DHT22;10678;51.002;4.786;2022-08-21T00:51:05;17.10;99.90
21039;DHT22;10678;51.002;4.786;2022-08-21T00:53:32;17.10;99.90
21039;DHT22;10678;51.002;4.786;2022-08-21T00:56:00;17.00;99.90
21039;DHT22;10678;51.002;4.786;2022-08-21T00:58:27;17.00;99.90
21039;DHT22;10678;51.002;4.786;2022-08-21T01:00:54;17.10;99.90
21039;DHT22;10678;51.002;4.786;2022-08-21T01:03:22;17.00;99.90
21039;DHT22;10678;51.002;4.786;2022-08-21T01:05:48;17.00;99.90
21039;DHT22;10678;51.002;4.786;2022-08-21T01:08:16;17.00;99.90
21039;DHT22;10678;51.002;4.786;2022-08-21T01:10:42;17.00;99.90
21039;DHT22;10678;51.002;4.786;2022-08-21T01:13:10;17.00;99.90
21039;DHT22;10678;51.002;4.786;2022-08-21T01:15:39;17.00;99.90
21039;DHT22;10678;51.002;4.786;2022-08-21T01:18:07;16.90;99.90
21039;DHT22;10678;51.002;4.786;2022-08-21T01:20:37;16.90;99.90
21039;DHT22;10678;51.002;4.786;2022-08-21T01:23:04;16.90;99.90
21039;DHT22;10678;51.002;4.786;2022-08-21T01:25:31;16.90;99.90
21039;DHT22;10678;51.002;4.786;2022-08-21T01:28:02;16.80;99.90
21039;DHT22;10678;51.002;4.786;2022-08-21T01:30:31;16.80;99.90
21039;DHT22;10678;51.002;4.786;2022-08-21T01:32:59;16.80;99.90
21039;DHT22;10678;51.002;4.786;2022-08-21T01:35:25;16.80;99.90
21039;DHT22;10678;51.002;4.786;2022-08-21T01:37:51;16.80;99.90
21039;DHT22;10678;51.002;4.786;2022-08-21T01:40:17;16.80;99.90
21039;DHT22;10678;51.002;4.786;2022-08-21T01:42:44;16.70;99.90
21039;DHT22;10678;51.002;4.786;2022-08-21T01:45:11;16.80;99.90
21039;DHT22;10678;51.002;4.786;2022-08-21T01:47:37;16.80;99.90
21039;DHT22;10678;51.002;4.786;2022-08-21T01:50:06;16.80;99.90
21039;DHT22;10678;51.002;4.786;2022-08-21T01:52:32;16.80;99.90
21039;DHT22;10678;51.002;4.786;2022-08-21T01:54:57;16.80;99.90
21039;DHT22;10678;51.002;4.786;2022-08-21T01:57:24;16.80;99.90
21039;DHT22;10678;51.002;4.786;2022-08-21T01:59:49;16.70;99.90
21039;DHT22;10678;51.002;4.786;2022-08-21T02:02:15;16.70;99.90
21039;DHT22;10678;51.002;4.786;2022-08-21T02:04:41;16.70;99.90
21039;DHT22;10678;51.002;4.786;2022-08-21T02:07:06;16.70;99.90
21039;DHT22;10678;51.002;4.786;2022-08-21T02:09:32;16.60;99.90
21039;DHT22;10678;51.002;4.786;2022-08-21T02:11:59;16.50;99.90
21039;DHT22;10678;51.002;4.786;2022-08-21T02:14:24;16.50;99.90
21039;DHT22;10678;51.002;4.786;2022-08-21T02:16:50;16.50;99.90
21039;DHT22;10678;51.002;4.786;2022-08-21T02:19:16;16.50;99.90
21039;DHT22;10678;51.002;4.786;2022-08-21T02:21:41;16.50;99.90
21039;DHT22;10678;51.002;4.786;2022-08-21T02:24:08;16.50;99.90
21039;DHT22;10678;51.002;4.786;2022-08-21T02:26:34;16.40;99.90
21039;DHT22;10678;51.002;4.786;2022-08-21T02:29:00;16.40;99.90
21039;DHT22;10678;51.002;4.786;2022-08-21T02:31:26;16.40;99.90
21039;DHT22;10678;51.002;4.786;2022-08-21T02:33:52;16.30;99.90
21039;DHT22;10678;51.002;4.786;2022-08-21T02:36:17;16.30;99.90
21039;DHT22;10678;51.002;4.786;2022-08-21T02:38:44;16.30;99.90
21039;DHT22;10678;51.002;4.786;2022-08-21T02:41:15;16.30;99.90
21039;DHT22;10678;51.002;4.786;2022-08-21T02:43:42;16.20;99.90
21039;DHT22;10678;51.002;4.786;2022-08-21T02:46:09;16.20;99.90
21039;DHT22;10678;51.002;4.786;2022-08-21T02:48:36;16.20;99.90
21039;DHT22;10678;51.002;4.786;2022-08-21T02:51:11;16.20;99.90
21039;DHT22;10678;51.002;4.786;2022-08-21T02:53:38;16.20;99.90
21039;DHT22;10678;51.002;4.786;2022-08-21T02:56:07;16.20;99.90
21039;DHT22;10678;51.002;4.786;2022-08-21T02:58:43;16.10;99.90
21039;DHT22;10678;51.002;4.786;2022-08-21T03:01:10;16.10;99.90
21039;DHT22;10678;51.002;4.786;2022-08-21T03:03:37;16.00;99.90
21039;DHT22;10678;51.002;4.786;2022-08-21T03:06:05;16.00;99.90
21039;DHT22;10678;51.002;4.786;2022-08-21T03:08:31;16.00;99.90
21039;DHT22;10678;51.002;4.786;2022-08-21T03:10:57;16.00;99.90
21039;DHT22;10678;51.002;4.786;2022-08-21T03:13:26;16.00;99.90
21039;DHT22;10678;51.002;4.786;2022-08-21T03:15:53;15.90;99.90
21039;DHT22;10678;51.002;4.786;2022-08-21T03:18:18;15.80;99.90
21039;DHT22;10678;51.002;4.786;2022-08-21T03:20:45;15.80;99.90
21039;DHT22;10678;51.002;4.786;2022-08-21T03:23:12;15.80;99.90
21039;DHT22;10678;51.002;4.786;2022-08-21T03:25:38;15.70;99.90
21039;DHT22;10678;51.002;4.786;2022-08-21T03:28:07;15.70;99.90
21039;DHT22;10678;51.002;4.786;2022-08-21T03:30:33;15.60;99.90
21039;DHT22;10678;51.002;4.786;2022-08-21T03:32:59;15.60;99.90
21039;DHT22;10678;51.002;4.786;2022-08-21T03:35:27;15.60;99.90
21039;DHT22;10678;51.002;4.786;2022-08-21T03:37:53;15.60;99.90
21039;DHT22;10678;51.002;4.786;2022-08-21T03:40:20;15.60;99.90
21039;DHT22;10678;51.002;4.786;2022-08-21T03:42:47;15.60;99.90
21039;DHT22;10678;51.002;4.786;2022-08-21T03:45:14;15.50;99.90
21039;DHT22;10678;51.002;4.786;2022-08-21T03:48:01;15.50;99.90
21039;DHT22;10678;51.002;4.786;2022-08-21T03:50:29;15.60;99.90
21039;DHT22;10678;51.002;4.786;2022-08-21T03:52:56;15.40;99.90
21039;DHT22;10678;51.002;4.786;2022-08-21T03:55:21;15.40;99.90
21039;DHT22;10678;51.002;4.786;2022-08-21T03:57:47;15.40;99.90
21039;DHT22;10678;51.002;4.786;2022-08-21T04:00:14;15.30;99.90
21039;DHT22;10678;51.002;4.786;2022-08-21T04:02:40;15.30;99.90
21039;DHT22;10678;51.002;4.786;2022-08-21T04:05:07;15.30;99.90
21039;DHT22;10678;51.002;4.786;2022-08-21T04:07:33;15.30;99.90
21039;DHT22;10678;51.002;4.786;2022-08-21T04:09:58;15.30;99.90
21039;DHT22;10678;51.002;4.786;2022-08-21T04:12:24;15.30;99.90
21039;DHT22;10678;51.002;4.786;2022-08-21T04:14:49;15.30;99.90
21039;DHT22;10678;51.002;4.786;2022-08-21T04:17:17;15.30;99.90
21039;DHT22;10678;51.002;4.786;2022-08-21T04:19:43;15.30;99.90
21039;DHT22;10678;51.002;4.786;2022-08-21T04:22:08;15.40;99.90
21039;DHT22;10678;51.002;4.786;2022-08-21T04:24:34;15.30;99.90
21039;DHT22;10678;51.002;4.786;2022-08-21T04:27:00;15.30;99.90
21039;DHT22;10678;51.002;4.786;2022-08-21T04:29:25;15.30;99.90
21039;DHT22;10678;51.002;4.786;2022-08-21T04:31:51;15.30;99.90
21039;DHT22;10678;51.002;4.786;2022-08-21T04:34:18;15.30;99.90
21039;DHT22;10678;51.002;4.786;2022-08-21T04:36:43;15.30;99.90
21039;DHT22;10678;51.002;4.786;2022-08-21T04:39:09;15.30;99.90
21039;DHT22;10678;51.002;4.786;2022-08-21T04:41:35;15.30;99.90
21039;DHT22;10678;51.002;4.786;2022-08-21T04:44:02;15.20;99.90
21039;DHT22;10678;51.002;4.786;2022-08-21T04:46:28;15.30;99.90
21039;DHT22;10678;51.002;4.786;2022-08-21T04:48:53;15.30;99.90
21039;DHT22;10678;51.002;4.786;2022-08-21T04:51:33;15.30;99.90
21039;DHT22;10678;51.002;4.786;2022-08-21T04:54:05;15.30;99.90
21039;DHT22;10678;51.002;4.786;2022-08-21T04:56:56;15.30;99.90
21039;DHT22;10678;51.002;4.786;2022-08-21T04:59:23;15.30;99.90
21039;DHT22;10678;51.002;4.786;2022-08-21T05:01:50;15.30;99.90
21039;DHT22;10678;51.002;4.786;2022-08-21T05:04:19;15.30;99.90
21039;DHT22;10678;51.002;4.786;2022-08-21T05:06:48;15.30;99.90
21039;DHT22;10678;51.002;4.786;2022-08-21T05:09:16;15.30;99.90
21039;DHT22;10678;51.002;4.786;2022-08-21T05:11:42;15.30;99.90
21039;DHT22;10678;51.002;4.786;2022-08-21T05:14:09;15.30;99.90
21039;DHT22;10678;51.002;4.786;2022-08-21T05:16:35;15.40;99.90
21039;DHT22;10678;51.002;4.786;2022-08-21T05:19:01;15.40;99.90
21039;DHT22;10678;51.002;4.786;2022-08-21T05:21:26;15.30;99.90
21039;DHT22;10678;51.002;4.786;2022-08-21T05:23:52;15.40;99.90
21039;DHT22;10678;51.002;4.786;2022-08-21T05:26:18;15.40;99.90
21039;DHT22;10678;51.002;4.786;2022-08-21T05:28:43;15.40;99.90
21039;DHT22;10678;51.002;4.786;2022-08-21T05:31:09;15.40;99.90
21039;DHT22;10678;51.002;4.786;2022-08-21T05:33:34;15.50;99.90
21039;DHT22;10678;51.002;4.786;2022-08-21T05:36:00;15.50;99.90
21039;DHT22;10678;51.002;4.786;2022-08-21T05:38:26;15.60;99.90
21039;DHT22;10678;51.002;4.786;2022-08-21T05:40:55;15.70;99.90
21039;DHT22;10678;51.002;4.786;2022-08-21T05:43:20;15.80;99.90
21039;DHT22;10678;51.002;4.786;2022-08-21T05:45:46;15.80;99.90
21039;DHT22;10678;51.002;4.786;2022-08-21T05:48:23;15.80;99.90
21039;DHT22;10678;51.002;4.786;2022-08-21T05:50:50;15.90;99.90
21039;DHT22;10678;51.002;4.786;2022-08-21T05:53:18;16.00;99.90
21039;DHT22;10678;51.002;4.786;2022-08-21T05:55:45;16.00;99.90
21039;DHT22;10678;51.002;4.786;2022-08-21T05:58:16;16.00;99.90
21039;DHT22;10678;51.002;4.786;2022-08-21T06:00:43;16.10;99.90
21039;DHT22;10678;51.002;4.786;2022-08-21T06:03:20;16.10;99.90
21039;DHT22;10678;51.002;4.786;2022-08-21T06:05:46;16.20;99.90
21039;DHT22;10678;51.002;4.786;2022-08-21T06:08:13;16.20;99.90
21039;DHT22;10678;51.002;4.786;2022-08-21T06:10:39;16.30;99.90
21039;DHT22;10678;51.002;4.786;2022-08-21T06:13:04;16.40;99.90
21039;DHT22;10678;51.002;4.786;2022-08-21T06:15:30;16.50;99.90
21039;DHT22;10678;51.002;4.786;2022-08-21T06:17:56;16.60;99.90
21039;DHT22;10678;51.002;4.786;2022-08-21T06:20:22;16.80;99.90
21039;DHT22;10678;51.002;4.786;2022-08-21T06:22:48;17.00;99.90
21039;DHT22;10678;51.002;4.786;2022-08-21T06:25:14;17.30;99.90
21039;DHT22;10678;51.002;4.786;2022-08-21T06:27:39;17.70;99.90
21039;DHT22;10678;51.002;4.786;2022-08-21T06:30:06;17.90;99.90
21039;DHT22;10678;51.002;4.786;2022-08-21T06:32:32;18.30;99.90
21039;DHT22;10678;51.002;4.786;2022-08-21T06:34:58;18.60;99.90
21039;DHT22;10678;51.002;4.786;2022-08-21T06:37:24;18.70;99.90
21039;DHT22;10678;51.002;4.786;2022-08-21T06:39:49;18.70;99.90
21039;DHT22;10678;51.002;4.786;2022-08-21T06:42:16;18.60;99.90
21039;DHT22;10678;51.002;4.786;2022-08-21T06:44:42;18.80;99.90
21039;DHT22;10678;51.002;4.786;2022-08-21T06:47:08;19.30;99.90
21039;DHT22;10678;51.002;4.786;2022-08-21T06:49:34;19.60;99.90
21039;DHT22;10678;51.002;4.786;2022-08-21T06:52:00;19.80;99.90
21039;DHT22;10678;51.002;4.786;2022-08-21T06:54:26;19.90;99.90
21039;DHT22;10678;51.002;4.786;2022-08-21T06:56:51;19.80;99.90
21039;DHT22;10678;51.002;4.786;2022-08-21T06:59:17;19.70;99.90
21039;DHT22;10678;51.002;4.786;2022-08-21T07:01:43;20.00;99.90
21039;DHT22;10678;51.002;4.786;2022-08-21T07:04:09;20.10;99.90
21039;DHT22;10678;51.002;4.786;2022-08-21T07:06:36;20.30;99.90
21039;DHT22;10678;51.002;4.786;2022-08-21T07:09:02;20.30;99.90
21039;DHT22;10678;51.002;4.786;2022-08-21T07:11:28;20.00;99.90
21039;DHT22;10678;51.002;4.786;2022-08-21T07:13:54;19.90;99.90
21039;DHT22;10678;51.002;4.786;2022-08-21T07:16:22;19.70;99.90
21039;DHT22;10678;51.002;4.786;2022-08-21T07:18:48;19.50;99.90
21039;DHT22;10678;51.002;4.786;2022-08-21T07:21:15;19.40;99.90
21039;DHT22;10678;51.002;4.786;2022-08-21T07:23:45;19.40;99.90
21039;DHT22;10678;51.002;4.786;2022-08-21T07:26:13;19.40;99.90
21039;DHT22;10678;51.002;4.786;2022-08-21T07:28:39;19.50;99.90
21039;DHT22;10678;51.002;4.786;2022-08-21T07:31:05;19.70;99.90
21039;DHT22;10678;51.002;4.786;2022-08-21T07:33:33;19.90;99.90
21039;DHT22;10678;51.002;4.786;2022-08-21T07:35:59;20.50;99.90
21039;DHT22;10678;51.002;4.786;2022-08-21T07:38:24;20.90;99.90
21039;DHT22;10678;51.002;4.786;2022-08-21T07:40:52;21.40;99.90
21039;DHT22;10678;51.002;4.786;2022-08-21T07:43:19;22.60;99.90
21039;DHT22;10678;51.002;4.786;2022-08-21T07:45:47;24.50;99.90
21039;DHT22;10678;51.002;4.786;2022-08-21T07:48:13;26.00;99.90
21039;DHT22;10678;51.002;4.786;2022-08-21T07:50:39;26.50;99.90
21039;DHT22;10678;51.002;4.786;2022-08-21T07:53:05;26.80;99.90
21039;DHT22;10678;51.002;4.786;2022-08-21T07:55:33;27.10;99.90
21039;DHT22;10678;51.002;4.786;2022-08-21T07:57:58;26.90;99.90
21039;DHT22;10678;51.002;4.786;2022-08-21T08:00:26;27.50;99.90
21039;DHT22;10678;51.002;4.786;2022-08-21T08:02:53;28.50;99.90
21039;DHT22;10678;51.002;4.786;2022-08-21T08:05:22;29.50;99.90
21039;DHT22;10678;51.002;4.786;2022-08-21T08:07:48;30.20;99.90
21039;DHT22;10678;51.002;4.786;2022-08-21T08:10:15;30.50;99.90
21039;DHT22;10678;51.002;4.786;2022-08-21T08:12:42;30.90;99.90
21039;DHT22;10678;51.002;4.786;2022-08-21T08:15:20;31.10;99.90
21039;DHT22;10678;51.002;4.786;2022-08-21T08:17:47;31.70;99.90
21039;DHT22;10678;51.002;4.786;2022-08-21T08:20:15;31.80;99.90
21039;DHT22;10678;51.002;4.786;2022-08-21T08:22:42;31.00;99.90
21039;DHT22;10678;51.002;4.786;2022-08-21T08:25:09;31.10;99.90
21039;DHT22;10678;51.002;4.786;2022-08-21T08:27:35;31.10;99.90
21039;DHT22;10678;51.002;4.786;2022-08-21T08:30:01;31.20;99.60
21039;DHT22;10678;51.002;4.786;2022-08-21T08:32:27;31.50;99.90
21039;DHT22;10678;51.002;4.786;2022-08-21T08:34:52;31.60;99.90
21039;DHT22;10678;51.002;4.786;2022-08-21T08:37:19;32.00;98.20
21039;DHT22;10678;51.002;4.786;2022-08-21T08:39:45;32.30;97.90
21039;DHT22;10678;51.002;4.786;2022-08-21T08:44:43;32.60;96.10
21039;DHT22;10678;51.002;4.786;2022-08-21T08:47:11;32.50;95.70
21039;DHT22;10678;51.002;4.786;2022-08-21T08:50:06;31.90;95.90
21039;DHT22;10678;51.002;4.786;2022-08-21T08:52:40;31.40;97.10
21039;DHT22;10678;51.002;4.786;2022-08-21T08:55:12;31.00;96.70
21039;DHT22;10678;51.002;4.786;2022-08-21T08:57:44;30.60;96.80
21039;DHT22;10678;51.002;4.786;2022-08-21T09:00:13;30.50;98.60
21039;DHT22;10678;51.002;4.786;2022-08-21T09:02:40;30.60;98.30
21039;DHT22;10678;51.002;4.786;2022-08-21T09:05:08;30.80;98.20
21039;DHT22;10678;51.002;4.786;2022-08-21T09:19:27;31.60;97.00
21039;DHT22;10678;51.002;4.786;2022-08-21T09:27:26;33.30;95.60
21039;DHT22;10678;51.002;4.786;2022-08-21T09:29:53;33.60;92.90
21039;DHT22;10678;51.002;4.786;2022-08-21T09:32:29;33.80;92.20
21039;DHT22;10678;51.002;4.786;2022-08-21T09:35:04;33.20;91.40
21039;DHT22;10678;51.002;4.786;2022-08-21T09:37:31;33.20;92.50
21039;DHT22;10678;51.002;4.786;2022-08-21T09:39:58;33.40;90.50
21039;DHT22;10678;51.002;4.786;2022-08-21T09:42:29;33.40;90.40
21039;DHT22;10678;51.002;4.786;2022-08-21T09:47:34;32.50;91.00
21039;DHT22;10678;51.002;4.786;2022-08-21T09:50:29;32.10;91.50
21039;DHT22;10678;51.002;4.786;2022-08-21T09:52:58;31.90;92.60
21039;DHT22;10678;51.002;4.786;2022-08-21T09:55:37;32.50;92.60
21039;DHT22;10678;51.002;4.786;2022-08-21T09:58:33;33.50;92.70
21039;DHT22;10678;51.002;4.786;2022-08-21T10:01:01;34.40;90.40
21039;DHT22;10678;51.002;4.786;2022-08-21T10:03:28;34.80;87.00
21039;DHT22;10678;51.002;4.786;2022-08-21T10:06:02;34.60;85.00
21039;DHT22;10678;51.002;4.786;2022-08-21T10:08:32;34.20;85.10
21039;DHT22;10678;51.002;4.786;2022-08-21T10:11:08;33.20;86.30
21039;DHT22;10678;51.002;4.786;2022-08-21T10:16:33;31.90;89.40
21039;DHT22;10678;51.002;4.786;2022-08-21T10:22:49;30.60;91.80
21039;DHT22;10678;51.002;4.786;2022-08-21T10:28:41;30.00;93.30
21039;DHT22;10678;51.002;4.786;2022-08-21T10:31:24;30.00;95.00
21039;DHT22;10678;51.002;4.786;2022-08-21T10:45:09;32.50;91.50
21039;DHT22;10678;51.002;4.786;2022-08-21T10:47:59;33.10;89.70
21039;DHT22;10678;51.002;4.786;2022-08-21T10:53:33;33.50;83.20
21039;DHT22;10678;51.002;4.786;2022-08-21T10:56:10;33.10;85.90
21039;DHT22;10678;51.002;4.786;2022-08-21T11:01:48;34.50;82.00
21039;DHT22;10678;51.002;4.786;2022-08-21T11:04:37;34.60;82.80
21039;DHT22;10678;51.002;4.786;2022-08-21T11:07:15;35.80;82.40
21039;DHT22;10678;51.002;4.786;2022-08-21T11:09:43;35.30;77.20
21039;DHT22;10678;51.002;4.786;2022-08-21T11:15:05;34.20;79.10
21039;DHT22;10678;51.002;4.786;2022-08-21T11:17:49;34.10;80.80
21039;DHT22;10678;51.002;4.786;2022-08-21T11:20:34;33.60;79.40
21039;DHT22;10678;51.002;4.786;2022-08-21T11:23:09;32.80;82.40
21039;DHT22;10678;51.002;4.786;2022-08-21T11:25:58;32.30;84.40
21039;DHT22;10678;51.002;4.786;2022-08-21T11:28:34;32.30;84.80
21039;DHT22;10678;51.002;4.786;2022-08-21T11:31:16;32.10;83.80
21039;DHT22;10678;51.002;4.786;2022-08-21T11:34:03;31.70;84.90
21039;DHT22;10678;51.002;4.786;2022-08-21T11:37:01;31.00;86.00
21039;DHT22;10678;51.002;4.786;2022-08-21T11:42:19;32.40;89.10
21039;DHT22;10678;51.002;4.786;2022-08-21T11:45:09;34.10;83.80
21039;DHT22;10678;51.002;4.786;2022-08-21T11:50:36;37.00;74.50
21039;DHT22;10678;51.002;4.786;2022-08-21T11:53:23;38.20;72.60
21039;DHT22;10678;51.002;4.786;2022-08-21T11:55:55;39.60;70.50
21039;DHT22;10678;51.002;4.786;2022-08-21T12:01:05;41.50;61.80
21039;DHT22;10678;51.002;4.786;2022-08-21T12:03:35;42.20;61.20
21039;DHT22;10678;51.002;4.786;2022-08-21T12:06:07;42.70;61.20
21039;DHT22;10678;51.002;4.786;2022-08-21T12:08:43;43.30;56.30
21039;DHT22;10678;51.002;4.786;2022-08-21T12:16:38;44.70;53.20
21039;DHT22;10678;51.002;4.786;2022-08-21T12:19:07;43.90;51.80
21039;DHT22;10678;51.002;4.786;2022-08-21T12:21:45;43.20;53.70
21039;DHT22;10678;51.002;4.786;2022-08-21T12:24:19;41.50;53.60
21039;DHT22;10678;51.002;4.786;2022-08-21T12:26:58;39.20;55.90
21039;DHT22;10678;51.002;4.786;2022-08-21T12:29:32;37.30;57.50
21039;DHT22;10678;51.002;4.786;2022-08-21T12:34:34;34.50;61.70
21039;DHT22;10678;51.002;4.786;2022-08-21T12:37:05;33.60;67.20
21039;DHT22;10678;51.002;4.786;2022-08-21T12:39:34;32.70;67.80
21039;DHT22;10678;51.002;4.786;2022-08-21T12:42:24;32.10;70.00
21039;DHT22;10678;51.002;4.786;2022-08-21T12:45:06;33.10;70.40
21039;DHT22;10678;51.002;4.786;2022-08-21T12:53:40;39.30;58.80
21039;DHT22;10678;51.002;4.786;2022-08-21T12:56:10;39.70;56.50
21039;DHT22;10678;51.002;4.786;2022-08-21T12:58:40;40.30;56.50
21039;DHT22;10678;51.002;4.786;2022-08-21T13:01:13;40.90;55.90
21039;DHT22;10678;51.002;4.786;2022-08-21T13:03:43;40.90;55.60
21039;DHT22;10678;51.002;4.786;2022-08-21T13:06:15;39.90;55.00
21039;DHT22;10678;51.002;4.786;2022-08-21T13:08:43;38.80;57.30
21039;DHT22;10678;51.002;4.786;2022-08-21T13:11:10;37.40;56.50
21039;DHT22;10678;51.002;4.786;2022-08-21T13:13:38;36.10;59.10
21039;DHT22;10678;51.002;4.786;2022-08-21T13:16:06;34.70;60.60
21039;DHT22;10678;51.002;4.786;2022-08-21T13:18:35;33.80;63.20
21039;DHT22;10678;51.002;4.786;2022-08-21T13:21:14;33.30;65.30
21039;DHT22;10678;51.002;4.786;2022-08-21T13:23:40;32.70;66.60
21039;DHT22;10678;51.002;4.786;2022-08-21T13:26:17;32.30;66.60
21039;DHT22;10678;51.002;4.786;2022-08-21T13:28:43;33.20;72.20
21039;DHT22;10678;51.002;4.786;2022-08-21T13:31:15;34.10;68.70
21039;DHT22;10678;51.002;4.786;2022-08-21T13:33:42;34.60;63.80
21039;DHT22;10678;51.002;4.786;2022-08-21T13:36:25;34.10;64.80
21039;DHT22;10678;51.002;4.786;2022-08-21T13:38:52;33.60;63.50
21039;DHT22;10678;51.002;4.786;2022-08-21T13:41:27;32.70;65.40
21039;DHT22;10678;51.002;4.786;2022-08-21T13:44:03;31.90;66.80
21039;DHT22;10678;51.002;4.786;2022-08-21T13:46:32;31.20;70.50
21039;DHT22;10678;51.002;4.786;2022-08-21T13:49:00;30.70;72.40
21039;DHT22;10678;51.002;4.786;2022-08-21T13:51:28;30.40;72.70
21039;DHT22;10678;51.002;4.786;2022-08-21T13:53:54;30.00;72.80
21039;DHT22;10678;51.002;4.786;2022-08-21T13:56:42;30.10;78.00
21039;DHT22;10678;51.002;4.786;2022-08-21T13:59:08;30.90;78.50
21039;DHT22;10678;51.002;4.786;2022-08-21T14:01:48;31.60;75.20
21039;DHT22;10678;51.002;4.786;2022-08-21T14:04:29;32.10;72.50
21039;DHT22;10678;51.002;4.786;2022-08-21T14:06:56;32.70;68.20
21039;DHT22;10678;51.002;4.786;2022-08-21T14:09:34;32.70;69.80
21039;DHT22;10678;51.002;4.786;2022-08-21T14:12:10;32.60;67.40
21039;DHT22;10678;51.002;4.786;2022-08-21T14:14:39;32.20;67.90
21039;DHT22;10678;51.002;4.786;2022-08-21T14:17:08;31.80;67.80
21039;DHT22;10678;51.002;4.786;2022-08-21T14:19:37;31.40;69.00
21039;DHT22;10678;51.002;4.786;2022-08-21T14:22:46;31.00;71.60
21039;DHT22;10678;51.002;4.786;2022-08-21T14:25:37;30.40;70.70
21039;DHT22;10678;51.002;4.786;2022-08-21T14:30:52;30.00;73.30
21039;DHT22;10678;51.002;4.786;2022-08-21T14:35:49;29.60;74.60
21039;DHT22;10678;51.002;4.786;2022-08-21T14:38:17;29.50;75.60
21039;DHT22;10678;51.002;4.786;2022-08-21T14:40:43;29.40;76.80
21039;DHT22;10678;51.002;4.786;2022-08-21T14:43:10;29.40;77.30
21039;DHT22;10678;51.002;4.786;2022-08-21T14:45:36;29.30;77.40
21039;DHT22;10678;51.002;4.786;2022-08-21T14:48:04;29.30;77.00
21039;DHT22;10678;51.002;4.786;2022-08-21T14:50:30;29.20;77.20
21039;DHT22;10678;51.002;4.786;2022-08-21T14:52:55;29.00;77.80
21039;DHT22;10678;51.002;4.786;2022-08-21T14:55:21;29.10;78.90
21039;DHT22;10678;51.002;4.786;2022-08-21T14:57:51;29.10;79.10
21039;DHT22;10678;51.002;4.786;2022-08-21T15:00:21;29.10;78.60
21039;DHT22;10678;51.002;4.786;2022-08-21T15:02:50;29.00;77.30
21039;DHT22;10678;51.002;4.786;2022-08-21T15:05:17;28.90;76.00
21039;DHT22;10678;51.002;4.786;2022-08-21T15:07:42;28.90;79.60
21039;DHT22;10678;51.002;4.786;2022-08-21T15:10:10;28.80;78.00
21039;DHT22;10678;51.002;4.786;2022-08-21T15:12:36;28.60;78.20
21039;DHT22;10678;51.002;4.786;2022-08-21T15:15:04;28.50;81.10
21039;DHT22;10678;51.002;4.786;2022-08-21T15:17:30;28.40;79.20
21039;DHT22;10678;51.002;4.786;2022-08-21T15:19:56;28.30;81.20
21039;DHT22;10678;51.002;4.786;2022-08-21T15:22:22;28.10;80.90
21039;DHT22;10678;51.002;4.786;2022-08-21T15:24:47;27.80;83.00
21039;DHT22;10678;51.002;4.786;2022-08-21T15:27:15;27.60;84.70
21039;DHT22;10678;51.002;4.786;2022-08-21T15:29:42;27.50;85.60
21039;DHT22;10678;51.002;4.786;2022-08-21T15:32:25;27.40;83.70
21039;DHT22;10678;51.002;4.786;2022-08-21T15:34:53;27.30;84.70
21039;DHT22;10678;51.002;4.786;2022-08-21T15:37:20;27.20;86.00
21039;DHT22;10678;51.002;4.786;2022-08-21T15:39:46;27.10;84.30
21039;DHT22;10678;51.002;4.786;2022-08-21T15:42:12;27.10;87.60
21039;DHT22;10678;51.002;4.786;2022-08-21T15:44:42;27.10;88.80
21039;DHT22;10678;51.002;4.786;2022-08-21T15:47:19;27.10;90.50
21039;DHT22;10678;51.002;4.786;2022-08-21T15:49:46;27.10;90.00
21039;DHT22;10678;51.002;4.786;2022-08-21T15:52:17;27.10;88.40
21039;DHT22;10678;51.002;4.786;2022-08-21T15:54:44;27.10;90.40
21039;DHT22;10678;51.002;4.786;2022-08-21T15:57:13;27.00;90.10
21039;DHT22;10678;51.002;4.786;2022-08-21T15:59:41;27.10;88.60
21039;DHT22;10678;51.002;4.786;2022-08-21T16:02:14;27.10;90.80
21039;DHT22;10678;51.002;4.786;2022-08-21T16:04:40;27.10;91.20
21039;DHT22;10678;51.002;4.786;2022-08-21T16:07:05;27.10;90.10
21039;DHT22;10678;51.002;4.786;2022-08-21T16:09:31;27.10;90.40
21039;DHT22;10678;51.002;4.786;2022-08-21T16:11:59;27.00;91.00
21039;DHT22;10678;51.002;4.786;2022-08-21T16:14:26;27.00;91.30
21039;DHT22;10678;51.002;4.786;2022-08-21T16:16:53;26.80;90.30
21039;DHT22;10678;51.002;4.786;2022-08-21T16:19:18;26.80;90.70
21039;DHT22;10678;51.002;4.786;2022-08-21T16:21:45;26.80;91.20
21039;DHT22;10678;51.002;4.786;2022-08-21T16:24:11;26.80;90.50
21039;DHT22;10678;51.002;4.786;2022-08-21T16:26:37;26.80;90.50
21039;DHT22;10678;51.002;4.786;2022-08-21T16:29:04;26.80;91.50
21039;DHT22;10678;51.002;4.786;2022-08-21T16:31:30;26.70;92.70
21039;DHT22;10678;51.002;4.786;2022-08-21T16:33:56;26.60;93.60
21039;DHT22;10678;51.002;4.786;2022-08-21T16:36:22;26.50;93.40
21039;DHT22;10678;51.002;4.786;2022-08-21T16:38:50;26.50;93.80
21039;DHT22;10678;51.002;4.786;2022-08-21T16:41:18;26.50;94.60
21039;DHT22;10678;51.002;4.786;2022-08-21T16:43:46;26.40;94.90
21039;DHT22;10678;51.002;4.786;2022-08-21T16:46:14;26.30;95.10
21039;DHT22;10678;51.002;4.786;2022-08-21T16:48:40;26.20;95.10
21039;DHT22;10678;51.002;4.786;2022-08-21T16:51:06;26.10;96.60
21039;DHT22;10678;51.002;4.786;2022-08-21T16:53:32;26.10;95.30
21039;DHT22;10678;51.002;4.786;2022-08-21T16:55:58;26.10;95.90
21039;DHT22;10678;51.002;4.786;2022-08-21T16:58:30;26.10;96.30
21039;DHT22;10678;51.002;4.786;2022-08-21T17:00:57;26.00;96.90
21039;DHT22;10678;51.002;4.786;2022-08-21T17:03:32;25.90;97.20